Time;durP1;ratioP1;P1;durP2;ratioP2;P2;SDS_P1;SDS_P2;PMS_P1;PMS_P2;Temp;Humidity;BMP_temperature;BMP_pressure;BME280_temperature;BME280_humidity;BME280_pressure;Samples;Min_cycle;Max_cycle;Signal;HPM_P1;HPM_P2
2022/07/13 00:01:02;;;;;;;1.47;0.90;;;23.00;91.10;;;;;;6110586;23;20421;-79
2022/07/13 00:03:29;;;;;;;1.47;0.87;;;22.90;91.10;;;;;;6144514;23;20426;-78
2022/07/13 00:05:56;;;;;;;1.47;0.90;;;22.90;90.70;;;;;;6120540;23;20748;-79
2022/07/13 00:08:24;;;;;;;1.40;0.90;;;22.90;91.60;;;;;;6144183;23;20543;-78
2022/07/13 00:10:51;;;;;;;1.50;1.10;;;22.90;91.90;;;;;;6109502;23;20556;-78
2022/07/13 00:13:19;;;;;;;1.40;0.90;;;22.80;91.90;;;;;;6144544;23;20430;-76
2022/07/13 00:15:46;;;;;;;1.43;0.90;;;22.80;92.00;;;;;;6115775;23;20468;-80
2022/07/13 00:18:13;;;;;;;1.43;0.90;;;22.80;92.10;;;;;;6146450;23;20866;-77
2022/07/13 00:20:40;;;;;;;1.47;0.90;;;22.80;91.50;;;;;;6122632;23;20418;-77
2022/07/13 00:23:07;;;;;;;1.50;0.90;;;22.80;91.90;;;;;;6130018;23;20481;-77
2022/07/13 00:25:34;;;;;;;1.43;0.90;;;22.80;92.20;;;;;;6122983;23;20438;-77
2022/07/13 00:28:01;;;;;;;1.47;0.90;;;22.70;91.90;;;;;;6130509;23;20487;-77
2022/07/13 00:30:30;;;;;;;1.50;0.90;;;22.80;91.80;;;;;;6131816;23;20514;-78
2022/07/13 00:32:57;;;;;;;1.43;0.90;;;22.80;91.60;;;;;;6130197;23;20456;-80
2022/07/13 00:35:24;;;;;;;1.43;0.90;;;22.80;91.70;;;;;;6123633;23;20441;-78
2022/07/13 00:37:52;;;;;;;1.47;0.90;;;22.80;92.10;;;;;;6132577;23;20527;-77
2022/07/13 00:40:19;;;;;;;1.40;0.83;;;22.80;92.40;;;;;;6121946;23;20440;-78
2022/07/13 00:42:46;;;;;;;1.50;0.90;;;22.80;91.70;;;;;;6129476;23;20445;-78
2022/07/13 00:45:13;;;;;;;1.50;0.90;;;22.80;91.70;;;;;;6121921;23;20959;-78
2022/07/13 00:47:42;;;;;;;1.50;0.90;;;22.80;92.00;;;;;;6128759;23;20448;-77
2022/07/13 00:50:10;;;;;;;1.47;0.90;;;22.90;91.70;;;;;;6124267;23;20827;-77
2022/07/13 00:52:38;;;;;;;1.43;0.90;;;22.90;91.90;;;;;;6128222;23;20480;-76
2022/07/13 00:55:08;;;;;;;1.50;0.90;;;22.90;91.20;;;;;;6124335;23;20445;-78
2022/07/13 00:57:36;;;;;;;1.43;0.90;;;22.80;89.20;;;;;;6129659;23;20531;-78
2022/07/13 01:00:06;;;;;;;1.40;0.90;;;22.80;88.20;;;;;;6122348;23;20895;-79
2022/07/13 01:02:33;;;;;;;1.43;0.90;;;22.80;87.80;;;;;;6126531;23;20445;-78
2022/07/13 01:05:02;;;;;;;1.47;0.90;;;22.80;87.80;;;;;;6126087;23;20839;-77
2022/07/13 01:07:32;;;;;;;1.47;0.90;;;22.80;87.60;;;;;;6131343;23;20459;-78
2022/07/13 01:10:00;;;;;;;1.50;0.90;;;22.80;87.70;;;;;;6125016;23;20542;-78
2022/07/13 01:12:29;;;;;;;1.47;0.90;;;22.80;87.60;;;;;;6126306;23;20532;-78
2022/07/13 01:14:56;;;;;;;1.47;0.90;;;22.80;87.80;;;;;;6125047;23;20453;-77
2022/07/13 01:17:23;;;;;;;1.50;1.00;;;22.80;87.90;;;;;;6129253;23;20536;-76
2022/07/13 01:19:52;;;;;;;1.43;0.90;;;22.70;87.50;;;;;;6126588;23;20425;-78
2022/07/13 01:22:22;;;;;;;1.47;0.90;;;22.70;87.50;;;;;;6127468;23;20444;-77
2022/07/13 01:24:51;;;;;;;1.43;0.90;;;22.70;87.40;;;;;;6126199;23;20446;-77
2022/07/13 01:27:19;;;;;;;1.47;0.90;;;22.70;87.10;;;;;;6123803;23;20449;-77
2022/07/13 01:29:47;;;;;;;1.47;0.83;;;22.70;87.30;;;;;;6124604;23;20446;-78
2022/07/13 01:32:14;;;;;;;1.43;0.90;;;22.70;86.90;;;;;;6107718;23;20429;-77
2022/07/13 01:34:41;;;;;;;1.47;0.90;;;22.70;86.80;;;;;;6122133;23;20496;-76
2022/07/13 01:37:09;;;;;;;1.50;0.90;;;22.70;87.20;;;;;;6123655;23;20448;-77
2022/07/13 01:39:36;;;;;;;1.47;0.90;;;22.60;87.00;;;;;;6127882;23;20948;-75
2022/07/13 01:42:04;;;;;;;1.43;0.90;;;22.60;87.40;;;;;;6119507;23;20517;-74
2022/07/13 01:44:31;;;;;;;1.50;0.90;;;22.60;87.20;;;;;;6122947;23;20521;-77
2022/07/13 01:47:08;;;;;;;1.43;0.90;;;22.60;87.20;;;;;;6121477;23;20852;-77
2022/07/13 01:49:35;;;;;;;1.47;0.87;;;22.60;87.10;;;;;;6130120;23;20845;-79
2022/07/13 01:52:02;;;;;;;1.50;0.90;;;22.60;87.00;;;;;;6121201;23;20505;-77
2022/07/13 01:54:30;;;;;;;1.47;0.90;;;22.60;87.10;;;;;;6122522;23;20964;-79
2022/07/13 01:56:57;;;;;;;1.40;0.80;;;22.60;86.60;;;;;;6121521;23;20445;-78
2022/07/13 01:59:25;;;;;;;1.50;1.00;;;22.60;86.30;;;;;;6130973;23;20441;-78
2022/07/13 02:01:52;;;;;;;1.43;0.90;;;22.60;86.80;;;;;;6130151;23;20803;-78
2022/07/13 02:04:19;;;;;;;1.43;0.90;;;22.60;86.70;;;;;;6122128;23;20506;-77
2022/07/13 02:06:46;;;;;;;1.47;0.90;;;22.70;87.90;;;;;;6120099;23;20899;-77
2022/07/13 02:09:13;;;;;;;1.83;1.63;;;22.70;88.30;;;;;;6134209;23;20923;-78
2022/07/13 02:11:40;;;;;;;1.47;0.90;;;22.70;88.40;;;;;;6119502;23;20512;-78
2022/07/13 02:14:08;;;;;;;1.47;0.90;;;22.70;88.50;;;;;;6120508;23;20528;-77
2022/07/13 02:16:36;;;;;;;1.50;0.90;;;22.70;88.30;;;;;;6123784;23;20620;-76
2022/07/13 02:19:03;;;;;;;1.47;0.90;;;22.70;89.00;;;;;;6135609;23;20425;-77
2022/07/13 02:21:30;;;;;;;1.50;0.90;;;22.70;88.70;;;;;;6115362;23;20453;-77
2022/07/13 02:23:57;;;;;;;1.50;0.90;;;22.70;88.90;;;;;;6137976;23;20441;-76
2022/07/13 02:26:24;;;;;;;1.50;0.90;;;22.60;88.80;;;;;;6117248;23;20724;-77
2022/07/13 02:28:52;;;;;;;1.47;0.90;;;22.60;89.00;;;;;;6145325;23;20477;-77
2022/07/13 02:31:21;;;;;;;1.50;0.90;;;22.60;89.00;;;;;;6113879;23;20768;-77
2022/07/13 02:33:50;;;;;;;1.47;0.90;;;22.60;89.10;;;;;;6139578;23;20441;-77
2022/07/13 02:36:19;;;;;;;1.50;0.90;;;22.60;89.60;;;;;;6116300;23;20454;-77
2022/07/13 02:38:46;;;;;;;1.47;0.97;;;22.60;89.40;;;;;;6141137;23;20800;-77
2022/07/13 02:41:13;;;;;;;1.43;0.90;;;22.60;90.00;;;;;;6112555;23;20484;-77
2022/07/13 02:43:41;;;;;;;1.47;0.90;;;22.60;89.80;;;;;;6149725;23;20496;-77
2022/07/13 02:46:08;;;;;;;1.43;0.90;;;22.50;89.80;;;;;;6113679;23;20503;-76
2022/07/13 02:48:35;;;;;;;1.50;0.90;;;22.50;90.10;;;;;;6142190;23;20425;-80
2022/07/13 02:51:04;;;;;;;1.47;0.90;;;22.50;89.80;;;;;;6109723;23;20527;-77
2022/07/13 02:53:31;;;;;;;1.47;0.90;;;22.50;89.80;;;;;;6142798;23;20547;-80
2022/07/13 02:55:58;;;;;;;1.43;0.90;;;22.40;90.30;;;;;;6123548;23;20745;-78
2022/07/13 02:58:26;;;;;;;1.50;0.90;;;22.40;90.30;;;;;;6124795;23;20422;-78
2022/07/13 03:00:53;;;;;;;1.43;0.90;;;22.30;90.50;;;;;;6109991;23;20425;-78
2022/07/13 03:03:20;;;;;;;1.50;0.90;;;22.30;90.50;;;;;;6145178;23;20422;-76
2022/07/13 03:05:47;;;;;;;1.47;0.90;;;22.30;90.60;;;;;;6124803;23;20426;-77
2022/07/13 03:08:15;;;;;;;1.50;0.90;;;22.30;90.70;;;;;;6125061;23;20429;-78
2022/07/13 03:10:43;;;;;;;1.47;0.90;;;22.30;90.40;;;;;;6123804;23;20528;-76
2022/07/13 03:13:10;;;;;;;1.47;0.90;;;22.30;90.70;;;;;;6130699;23;20453;-77
2022/07/13 03:15:37;;;;;;;1.50;0.90;;;22.30;90.80;;;;;;6123814;23;20449;-77
2022/07/13 03:18:04;;;;;;;1.40;0.90;;;22.30;90.50;;;;;;6123191;23;21020;-79
2022/07/13 03:20:31;;;;;;;1.50;0.90;;;22.30;90.60;;;;;;6122735;23;20426;-78
2022/07/13 03:22:59;;;;;;;1.47;0.87;;;22.30;91.00;;;;;;6122770;23;20434;-77
2022/07/13 03:25:28;;;;;;;1.50;0.90;;;22.30;90.60;;;;;;6123796;23;20703;-77
2022/07/13 03:27:55;;;;;;;1.50;0.90;;;22.30;91.10;;;;;;6130536;23;20469;-78
2022/07/13 03:30:22;;;;;;;1.47;0.90;;;22.20;91.20;;;;;;6131659;23;20444;-77
2022/07/13 03:32:49;;;;;;;1.43;0.90;;;22.20;90.90;;;;;;6125339;23;20453;-79
2022/07/13 03:35:17;;;;;;;1.47;0.90;;;22.20;91.40;;;;;;6128442;23;20449;-78
2022/07/13 03:37:44;;;;;;;1.50;0.90;;;22.20;91.40;;;;;;6135834;23;20477;-78
2022/07/13 03:40:12;;;;;;;1.47;0.90;;;22.20;91.20;;;;;;6142047;23;20947;-78
2022/07/13 03:42:41;;;;;;;1.47;0.90;;;22.20;91.50;;;;;;6129935;23;20449;-76
2022/07/13 03:45:09;;;;;;;1.47;0.90;;;22.20;91.50;;;;;;6122343;23;20442;-77
2022/07/13 03:47:36;;;;;;;1.43;0.90;;;22.20;91.20;;;;;;6129407;23;20927;-76
2022/07/13 03:50:04;;;;;;;1.47;0.90;;;22.20;91.40;;;;;;6124544;23;20422;-77
2022/07/13 03:52:31;;;;;;;1.50;0.90;;;22.20;91.50;;;;;;6131929;23;20524;-77
2022/07/13 03:54:58;;;;;;;1.47;0.90;;;22.20;91.40;;;;;;6136177;23;20462;-77
2022/07/13 03:57:26;;;;;;;1.43;0.90;;;22.20;91.70;;;;;;6128160;23;20472;-77
2022/07/13 03:59:54;;;;;;;1.47;0.90;;;22.20;91.20;;;;;;6126883;23;20422;-78
2022/07/13 04:02:21;;;;;;;1.50;0.90;;;22.20;91.20;;;;;;6125105;23;20451;-78
2022/07/13 04:04:49;;;;;;;1.60;1.10;;;22.30;90.90;;;;;;6128247;23;20434;-78
2022/07/13 04:07:16;;;;;;;1.47;0.90;;;22.30;91.20;;;;;;6129389;23;20536;-75
2022/07/13 04:09:43;;;;;;;1.47;0.90;;;22.30;91.30;;;;;;6143589;23;20811;-78
2022/07/13 04:12:13;;;;;;;1.47;0.90;;;22.30;91.10;;;;;;6123529;23;20445;-77
2022/07/13 04:14:40;;;;;;;1.47;0.90;;;22.30;91.50;;;;;;6123295;23;21028;-78
2022/07/13 04:17:09;;;;;;;1.47;0.90;;;22.30;91.40;;;;;;6124226;23;20445;-79
2022/07/13 04:19:36;;;;;;;1.47;0.90;;;22.20;91.70;;;;;;6130411;23;20460;-78
2022/07/13 04:22:03;;;;;;;1.47;0.90;;;22.20;91.40;;;;;;6120122;23;20448;-76
2022/07/13 04:24:30;;;;;;;1.47;0.90;;;22.20;91.70;;;;;;6133416;23;20441;-79
2022/07/13 04:26:58;;;;;;;1.47;0.90;;;22.20;91.50;;;;;;6122863;23;20889;-78
2022/07/13 04:29:25;;;;;;;1.43;0.90;;;22.30;91.30;;;;;;6132277;23;20806;-79
2022/07/13 04:31:52;;;;;;;1.50;0.90;;;22.30;91.10;;;;;;6123518;23;20477;-78
2022/07/13 04:34:20;;;;;;;1.47;0.90;;;22.30;91.10;;;;;;6125377;23;20476;-76
2022/07/13 04:36:48;;;;;;;1.43;0.90;;;22.30;90.80;;;;;;6126858;23;20448;-76
2022/07/13 04:39:15;;;;;;;1.47;0.90;;;22.30;90.60;;;;;;6143680;23;20457;-77
2022/07/13 04:41:46;;;;;;;1.50;0.90;;;22.40;90.40;;;;;;6120851;23;20448;-76
2022/07/13 04:44:13;;;;;;;1.50;1.10;;;22.40;90.40;;;;;;6148844;23;20438;-78
2022/07/13 04:46:40;;;;;;;1.47;0.90;;;22.40;90.30;;;;;;6123880;23;20426;-77
2022/07/13 04:49:19;;;;;;;1.43;0.90;;;22.40;90.60;;;;;;6139721;23;20422;-79
2022/07/13 04:51:49;;;;;;;1.50;0.90;;;22.50;90.40;;;;;;6127169;23;20706;-79
2022/07/13 04:54:16;;;;;;;1.47;0.87;;;22.50;90.30;;;;;;6135340;23;20465;-79
2022/07/13 04:56:44;;;;;;;1.40;0.87;;;22.50;90.20;;;;;;6123256;23;20925;-78
2022/07/13 04:59:12;;;;;;;1.43;0.90;;;22.60;90.40;;;;;;6124489;23;20446;-79
2022/07/13 05:01:40;;;;;;;1.47;0.90;;;22.60;90.10;;;;;;6119339;23;20454;-78
2022/07/13 05:04:08;;;;;;;1.43;0.90;;;22.60;89.80;;;;;;6139619;23;20495;-79
2022/07/13 05:06:35;;;;;;;1.50;0.90;;;22.70;89.40;;;;;;6125444;23;20963;-79
2022/07/13 05:09:05;;;;;;;1.50;0.90;;;22.70;89.40;;;;;;6138561;23;20796;-78
2022/07/13 05:11:32;;;;;;;1.47;0.90;;;22.80;89.20;;;;;;6118805;23;20452;-79
2022/07/13 05:13:59;;;;;;;1.43;0.90;;;22.80;89.20;;;;;;6138612;23;20954;-78
2022/07/13 05:16:26;;;;;;;1.47;0.90;;;22.80;88.90;;;;;;6132337;23;20436;-78
2022/07/13 05:18:54;;;;;;;1.50;1.10;;;22.90;89.10;;;;;;6123014;23;20958;-78
2022/07/13 05:21:21;;;;;;;1.50;0.90;;;22.90;88.70;;;;;;6130366;23;20951;-78
2022/07/13 05:23:48;;;;;;;1.47;0.90;;;22.90;88.80;;;;;;6124565;23;20484;-78
2022/07/13 05:26:18;;;;;;;1.50;0.90;;;22.90;88.70;;;;;;6119470;23;20455;-77
2022/07/13 05:28:46;;;;;;;1.47;0.90;;;22.90;88.70;;;;;;6140443;23;20500;-78
2022/07/13 05:31:15;;;;;;;1.47;0.90;;;23.00;88.50;;;;;;6114003;23;20456;-78
2022/07/13 05:33:44;;;;;;;1.43;0.90;;;23.10;88.00;;;;;;6152149;23;20481;-78
2022/07/13 05:36:18;;;;;;;1.43;0.87;;;23.10;88.00;;;;;;6115768;23;20440;-78
2022/07/13 05:38:45;;;;;;;1.43;0.90;;;23.20;88.00;;;;;;6145097;23;20473;-79
2022/07/13 05:41:12;;;;;;;1.47;0.90;;;23.20;87.90;;;;;;6111364;23;20794;-76
2022/07/13 05:43:41;;;;;;;1.40;0.90;;;23.20;87.80;;;;;;6129905;23;20453;-78
2022/07/13 05:46:38;;;;;;;1.50;0.90;;;23.20;87.80;;;;;;6110224;23;20445;-79
2022/07/13 05:49:05;;;;;;;1.47;0.90;;;23.30;88.10;;;;;;6137279;23;20429;-76
2022/07/13 05:51:38;;;;;;;1.47;0.90;;;23.20;87.90;;;;;;6118711;23;20449;-78
2022/07/13 05:54:06;;;;;;;1.50;1.00;;;23.30;88.00;;;;;;6129502;23;20473;-79
2022/07/13 05:56:33;;;;;;;1.50;1.00;;;23.30;87.90;;;;;;6119793;23;20453;-79
2022/07/13 05:59:02;;;;;;;1.50;0.80;;;23.30;88.10;;;;;;6146015;23;20525;-79
2022/07/13 06:01:29;;;;;;;1.50;0.90;;;23.30;88.10;;;;;;6120689;23;20425;-79
2022/07/13 06:03:59;;;;;;;1.47;0.90;;;23.40;87.90;;;;;;6132221;23;20438;-78
2022/07/13 06:06:26;;;;;;;1.50;0.90;;;23.60;88.10;;;;;;6124039;23;20444;-77
2022/07/13 06:09:08;;;;;;;1.47;0.90;;;23.80;87.40;;;;;;6140662;23;20418;-79
2022/07/13 06:11:35;;;;;;;1.50;0.90;;;24.20;87.30;;;;;;6124574;23;20451;-78
2022/07/13 06:14:05;;;;;;;1.50;0.90;;;24.70;86.50;;;;;;6137891;23;20489;-76
2022/07/13 06:16:33;;;;;;;1.50;0.90;;;25.30;84.20;;;;;;6122830;23;20459;-78
2022/07/13 06:19:01;;;;;;;1.47;0.90;;;25.60;83.20;;;;;;6146369;23;20417;-78
2022/07/13 06:21:28;;;;;;;1.50;0.80;;;25.70;81.80;;;;;;6113202;23;20445;-78
2022/07/13 06:23:56;;;;;;;1.43;0.90;;;25.80;82.40;;;;;;6146146;23;20496;-77
2022/07/13 06:26:23;;;;;;;1.47;0.80;;;25.80;82.20;;;;;;6115710;23;20790;-77
2022/07/13 06:28:51;;;;;;;1.50;0.90;;;25.70;81.90;;;;;;6136254;23;20464;-77
2022/07/13 06:31:22;;;;;;;1.50;1.00;;;25.70;82.10;;;;;;6110663;23;20543;-77
2022/07/13 06:33:52;;;;;;;1.47;0.90;;;25.60;82.40;;;;;;6136324;23;20445;-77
2022/07/13 06:36:19;;;;;;;1.47;0.90;;;25.50;82.80;;;;;;6113836;23;20448;-78
2022/07/13 06:38:47;;;;;;;1.47;0.90;;;25.50;82.90;;;;;;6144729;23;20422;-76
2022/07/13 06:41:14;;;;;;;1.50;0.90;;;25.40;83.10;;;;;;6119206;23;20943;-78
2022/07/13 06:43:48;;;;;;;1.47;0.87;;;25.50;83.30;;;;;;6122766;23;20469;-78
2022/07/13 06:46:16;;;;;;;1.47;0.80;;;25.60;82.60;;;;;;6110596;23;20448;-77
2022/07/13 06:48:44;;;;;;;1.50;0.90;;;25.70;81.60;;;;;;6138185;23;20434;-77
2022/07/13 06:51:13;;;;;;;1.50;0.90;;;25.90;79.10;;;;;;6107709;23;20448;-79
2022/07/13 06:53:40;;;;;;;1.43;0.87;;;26.10;79.40;;;;;;6138914;23;20500;-78
2022/07/13 06:56:08;;;;;;;1.50;0.87;;;26.40;78.80;;;;;;6112178;23;20532;-77
2022/07/13 06:58:35;;;;;;;1.50;1.10;;;26.60;77.30;;;;;;6149015;23;20426;-80
2022/07/13 07:01:03;;;;;;;1.43;0.87;;;26.80;77.40;;;;;;6108198;23;20461;-79
2022/07/13 07:03:30;;;;;;;1.50;0.90;;;26.90;77.60;;;;;;6142445;23;20500;-78
2022/07/13 07:05:59;;;;;;;1.47;0.80;;;27.00;76.50;;;;;;6117492;23;20428;-79
2022/07/13 07:08:26;;;;;;;1.43;0.80;;;27.00;76.70;;;;;;6142816;23;20430;-78
2022/07/13 07:10:54;;;;;;;1.50;1.00;;;26.90;77.40;;;;;;6119059;23;20517;-79
2022/07/13 07:13:21;;;;;;;1.47;0.80;;;27.30;77.20;;;;;;6139799;23;20452;-79
2022/07/13 07:15:48;;;;;;;1.50;0.90;;;27.70;75.60;;;;;;6109780;23;20953;-78
2022/07/13 07:18:16;;;;;;;1.43;0.90;;;28.00;75.50;;;;;;6142435;23;20492;-78
2022/07/13 07:20:43;;;;;;;1.60;1.10;;;28.30;73.80;;;;;;6118866;23;20460;-77
2022/07/13 07:23:12;;;;;;;1.40;0.80;;;28.40;73.10;;;;;;6104638;23;20468;-79
2022/07/13 07:25:39;;;;;;;1.40;0.80;;;28.50;72.50;;;;;;6120366;23;20440;-77
2022/07/13 07:28:07;;;;;;;1.43;0.80;;;28.50;72.70;;;;;;6137721;23;20450;-80
2022/07/13 07:30:34;;;;;;;1.40;0.83;;;28.50;73.40;;;;;;6129450;23;20772;-78
2022/07/13 07:33:02;;;;;;;1.47;0.80;;;28.60;72.50;;;;;;6132869;23;20448;-80
2022/07/13 07:35:29;;;;;;;1.40;0.80;;;28.60;72.80;;;;;;6126033;23;20456;-77
2022/07/13 07:37:57;;;;;;;1.47;0.80;;;28.60;72.30;;;;;;6121764;23;20467;-76
2022/07/13 07:40:25;;;;;;;1.50;0.80;;;28.60;72.60;;;;;;6123205;23;20504;-80
2022/07/13 07:42:52;;;;;;;1.50;0.90;;;28.60;71.70;;;;;;6127601;23;20780;-78
2022/07/13 07:45:19;;;;;;;1.43;0.80;;;28.60;72.00;;;;;;6119774;23;20499;-78
2022/07/13 07:47:47;;;;;;;1.43;0.80;;;28.60;72.60;;;;;;6129489;23;20452;-77
2022/07/13 07:50:14;;;;;;;1.40;0.80;;;28.60;71.90;;;;;;6120676;23;20449;-77
2022/07/13 07:52:41;;;;;;;1.43;0.80;;;28.70;72.40;;;;;;6120460;23;21120;-77
2022/07/13 07:55:09;;;;;;;1.50;0.80;;;28.70;71.80;;;;;;6120171;23;20622;-77
2022/07/13 07:57:47;;;;;;;1.43;0.80;;;28.70;71.90;;;;;;6115759;23;20596;-77
2022/07/13 08:00:16;;;;;;;1.43;0.90;;;28.60;71.80;;;;;;6120752;23;20967;-78
2022/07/13 08:02:44;;;;;;;1.50;0.80;;;28.60;72.10;;;;;;6116498;23;20574;-77
2022/07/13 08:05:11;;;;;;;1.40;0.90;;;28.50;73.00;;;;;;6129773;23;20500;-78
2022/07/13 08:07:43;;;;;;;1.40;0.80;;;28.40;72.40;;;;;;6124441;23;20505;-77
2022/07/13 08:10:12;;;;;;;1.40;0.80;;;28.40;72.40;;;;;;6124420;23;20419;-75
2022/07/13 08:12:40;;;;;;;1.40;0.80;;;28.50;71.40;;;;;;6119765;23;20484;-78
2022/07/13 08:15:14;;;;;;;1.43;0.80;;;28.60;70.40;;;;;;6120399;23;20499;-79
2022/07/13 08:17:41;;;;;;;1.40;0.80;;;28.90;70.00;;;;;;6117199;23;20435;-79
2022/07/13 08:20:11;;;;;;;1.43;0.80;;;29.30;69.40;;;;;;6116574;23;20433;-78
2022/07/13 08:22:39;;;;;;;1.43;0.80;;;29.80;68.40;;;;;;6117375;23;20432;-78
2022/07/13 08:25:06;;;;;;;1.47;0.80;;;30.30;67.90;;;;;;6118641;23;20484;-78
2022/07/13 08:27:33;;;;;;;1.47;0.80;;;30.60;67.50;;;;;;6120440;23;20436;-79
2022/07/13 08:30:00;;;;;;;1.50;0.80;;;30.80;65.60;;;;;;6123102;23;20440;-76
2022/07/13 08:32:29;;;;;;;1.43;0.80;;;30.80;65.70;;;;;;6117892;23;20445;-77
2022/07/13 08:40:25;;;;;;;1.47;0.80;;;30.80;64.70;;;;;;6122714;23;20602;-79
2022/07/13 08:42:55;;;;;;;1.43;0.80;;;30.70;66.10;;;;;;6127553;23;20413;-78
2022/07/13 08:45:24;;;;;;;1.47;0.80;;;30.60;65.40;;;;;;6138812;23;20486;-76
2022/07/13 08:47:53;;;;;;;1.43;0.80;;;30.60;63.90;;;;;;6124474;23;20433;-78
2022/07/13 08:50:23;;;;;;;1.47;0.80;;;30.60;64.80;;;;;;6127575;23;20970;-77
2022/07/13 08:52:55;;;;;;;1.80;1.23;;;30.50;64.50;;;;;;6127314;23;20524;-77
2022/07/13 08:55:23;;;;;;;1.47;0.80;;;30.60;64.70;;;;;;6133187;23;20789;-77
2022/07/13 08:57:51;;;;;;;1.47;0.80;;;30.80;64.20;;;;;;6130483;23;20437;-82
2022/07/13 09:00:21;;;;;;;1.47;0.80;;;31.10;62.70;;;;;;6127636;23;20453;-78
2022/07/13 09:02:49;;;;;;;1.50;1.00;;;31.30;62.80;;;;;;6134314;23;20429;-77
2022/07/13 09:05:20;;;;;;;1.43;0.80;;;31.40;61.80;;;;;;6115058;23;20479;-76
2022/07/13 09:08:05;;;;;;;1.40;0.80;;;31.50;61.60;;;;;;6116810;23;20417;-78
2022/07/13 09:10:34;;;;;;;1.43;0.80;;;31.70;61.50;;;;;;6128658;23;20445;-77
2022/07/13 09:13:02;;;;;;;1.47;0.90;;;31.80;61.70;;;;;;6127772;23;20547;-77
2022/07/13 09:19:12;;;;;;;1.43;0.80;;;31.90;60.60;;;;;;6104713;23;20496;-74
2022/07/13 09:21:41;;;;;;;1.43;0.80;;;31.80;61.00;;;;;;6131920;23;20448;-77
2022/07/13 09:24:22;;;;;;;1.43;0.80;;;31.60;62.30;;;;;;6125264;23;20437;-77
2022/07/13 09:26:50;;;;;;;1.47;0.80;;;31.60;61.40;;;;;;6127040;23;20409;-76
2022/07/13 09:29:22;;;;;;;1.50;1.00;;;31.50;60.90;;;;;;6133238;23;20448;-77
2022/07/13 09:31:54;;;;;;;1.60;1.50;;;31.40;60.80;;;;;;6127957;23;20473;-76
2022/07/13 09:34:22;;;;;;;1.50;1.00;;;31.40;61.80;;;;;;6135287;23;20437;-75
2022/07/13 09:37:09;;;;;;;1.40;0.80;;;31.50;62.20;;;;;;6131667;23;20424;-75
2022/07/13 09:39:56;;;;;;;1.47;0.80;;;31.70;61.50;;;;;;6121517;23;20416;-76
2022/07/13 09:42:28;;;;;;;1.47;0.80;;;32.10;60.60;;;;;;6141314;23;20723;-75
2022/07/13 09:47:58;;;;;;;1.43;0.80;;;32.20;60.10;;;;;;6134049;23;20485;-78
2022/07/13 09:50:36;;;;;;;1.43;0.80;;;32.20;60.10;;;;;;6104341;23;20527;-76
2022/07/13 09:53:25;;;;;;;1.40;0.80;;;32.00;59.90;;;;;;6116148;23;20453;-74
2022/07/13 09:55:53;;;;;;;1.40;0.80;;;31.90;60.50;;;;;;6119707;23;20442;-75
2022/07/13 09:58:26;;;;;;;1.47;0.80;;;32.00;61.50;;;;;;6117980;23;20758;-74
2022/07/13 10:00:56;;;;;;;1.40;0.80;;;32.10;59.60;;;;;;6115248;23;20495;-75
2022/07/13 10:03:23;;;;;;;1.43;0.80;;;32.00;60.00;;;;;;6117778;23;20963;-75
2022/07/13 10:05:52;;;;;;;1.40;0.90;;;31.90;59.70;;;;;;6117417;23;20958;-75
2022/07/13 10:08:22;;;;;;;1.40;0.80;;;31.70;60.00;;;;;;6118525;23;20451;-75
2022/07/13 10:10:49;;;;;;;1.47;0.80;;;31.60;59.90;;;;;;6115636;23;20786;-73
2022/07/13 10:13:17;;;;;;;1.50;0.90;;;31.50;60.90;;;;;;6119159;23;20449;-74
2022/07/13 10:15:46;;;;;;;1.43;0.80;;;31.40;60.40;;;;;;6119117;23;20428;-74
2022/07/13 10:18:18;;;;;;;1.43;0.80;;;31.40;60.90;;;;;;6119186;23;20606;-74
2022/07/13 10:20:51;;;;;;;1.43;0.80;;;31.30;61.90;;;;;;6117978;23;20453;-73
2022/07/13 10:23:33;;;;;;;1.43;0.80;;;31.30;61.50;;;;;;6117803;23;20875;-74
2022/07/13 10:26:01;;;;;;;1.47;0.80;;;31.30;61.90;;;;;;6118497;23;20682;-74
2022/07/13 10:28:29;;;;;;;1.50;0.90;;;31.30;61.20;;;;;;6116987;23;20511;-74
2022/07/13 10:30:56;;;;;;;1.40;0.80;;;31.30;61.50;;;;;;6117117;23;20499;-78
2022/07/13 10:33:25;;;;;;;1.57;1.10;;;31.30;62.70;;;;;;6118335;23;20444;-77
2022/07/13 10:35:54;;;;;;;1.40;0.80;;;31.30;62.20;;;;;;6118215;23;20428;-78
2022/07/13 10:38:27;;;;;;;1.43;0.80;;;31.40;62.70;;;;;;6117690;23;20836;-77
2022/07/13 10:41:18;;;;;;;1.43;0.80;;;31.40;62.00;;;;;;6116944;23;20449;-77
2022/07/13 10:43:54;;;;;;;1.80;1.00;;;31.40;62.40;;;;;;6118975;23;20464;-76
2022/07/13 10:46:49;;;;;;;1.50;1.00;;;31.30;62.30;;;;;;6119826;23;21079;-77
2022/07/13 10:49:34;;;;;;;1.43;0.80;;;31.30;62.30;;;;;;6119383;23;20405;-77
2022/07/13 10:52:52;;;;;;;1.40;0.80;;;31.20;63.10;;;;;;6118553;23;20415;-77
2022/07/13 10:55:47;;;;;;;1.40;0.80;;;31.20;63.60;;;;;;6121575;23;20413;-77
2022/07/13 10:58:43;;;;;;;1.43;0.80;;;31.30;63.30;;;;;;6115432;23;20440;-77
2022/07/13 11:01:33;;;;;;;1.47;0.80;;;31.60;63.00;;;;;;6114654;23;20747;-76
2022/07/13 11:04:00;;;;;;;1.43;0.80;;;32.00;62.00;;;;;;6115498;23;20694;-76
2022/07/13 11:06:29;;;;;;;1.43;0.80;;;32.30;62.80;;;;;;6116051;23;20436;-77
2022/07/13 11:09:20;;;;;;;1.47;0.80;;;32.60;61.60;;;;;;6115394;23;20425;-77
2022/07/13 11:11:53;;;;;;;1.50;0.90;;;32.90;61.40;;;;;;6114314;23;20461;-76
2022/07/13 11:15:00;;;;;;;1.50;0.80;;;33.20;60.70;;;;;;6120657;23;20472;-78
2022/07/13 11:17:29;;;;;;;1.50;1.10;;;33.40;60.40;;;;;;6126590;23;20429;-77
2022/07/13 11:20:03;;;;;;;1.43;0.80;;;33.60;60.70;;;;;;6132238;23;20197;-77
2022/07/13 11:25:43;;;;;;;1.43;0.80;;;34.30;59.00;;;;;;6117524;23;20763;-77
2022/07/13 11:28:31;;;;;;;1.43;0.80;;;34.50;58.30;;;;;;6111646;23;20186;-77
2022/07/13 11:30:58;;;;;;;1.47;0.80;;;34.50;58.10;;;;;;6125043;23;20596;-77
2022/07/13 11:33:26;;;;;;;1.47;0.80;;;34.60;58.60;;;;;;6116258;23;20280;-78
2022/07/13 11:35:53;;;;;;;1.40;0.80;;;34.70;58.30;;;;;;6119883;23;20185;-76
2022/07/13 11:38:21;;;;;;;1.40;0.80;;;34.80;58.20;;;;;;6116828;23;20181;-75
2022/07/13 11:40:48;;;;;;;1.43;0.80;;;34.70;58.30;;;;;;6116876;23;20356;-76
2022/07/13 11:43:15;;;;;;;1.43;0.80;;;34.60;58.80;;;;;;6115424;23;20491;-76
2022/07/13 11:45:44;;;;;;;1.40;0.80;;;34.50;59.10;;;;;;6118551;23;20186;-77
2022/07/13 11:48:16;;;;;;;1.40;0.80;;;34.20;58.40;;;;;;6116563;23;20185;-77
2022/07/13 11:50:48;;;;;;;1.47;0.80;;;34.10;59.20;;;;;;6115951;23;20648;-78
2022/07/13 11:53:30;;;;;;;1.40;0.80;;;34.10;59.40;;;;;;6114452;23;20719;-77
2022/07/13 11:55:59;;;;;;;1.47;0.80;;;34.10;60.10;;;;;;6116875;23;20545;-79
2022/07/13 11:58:31;;;;;;;1.40;0.80;;;34.20;58.80;;;;;;6118640;23;20234;-77
2022/07/13 12:01:01;;;;;;;1.40;0.80;;;34.10;60.20;;;;;;6118325;23;20237;-77
2022/07/13 12:03:31;;;;;;;1.40;0.80;;;34.10;59.70;;;;;;6116960;23;20480;-77
2022/07/13 12:06:03;;;;;;;1.40;0.80;;;34.00;59.50;;;;;;6124864;23;20186;-77
2022/07/13 12:08:33;;;;;;;1.40;0.80;;;34.00;60.10;;;;;;6116990;23;20186;-77
2022/07/13 12:11:02;;;;;;;1.40;0.80;;;34.00;59.40;;;;;;6116187;23;20459;-76
2022/07/13 12:13:33;;;;;;;1.40;0.80;;;34.00;60.00;;;;;;6118508;23;20242;-78
2022/07/13 12:16:01;;;;;;;1.40;0.80;;;34.00;59.30;;;;;;6118306;23;20182;-79
2022/07/13 12:18:28;;;;;;;1.40;0.80;;;34.00;59.70;;;;;;6115707;23;20185;-77
2022/07/13 12:20:56;;;;;;;1.40;0.80;;;34.00;58.80;;;;;;6115153;23;20448;-79
2022/07/13 12:23:23;;;;;;;1.40;0.80;;;34.00;59.50;;;;;;6116325;23;20512;-76
2022/07/13 12:26:05;;;;;;;1.40;0.80;;;34.10;60.10;;;;;;6120965;23;20193;-78
2022/07/13 12:28:33;;;;;;;1.40;0.80;;;34.20;59.30;;;;;;6118636;23;20171;-77
2022/07/13 12:31:02;;;;;;;1.40;0.80;;;34.30;58.50;;;;;;6114392;23;20719;-77
2022/07/13 12:33:46;;;;;;;1.40;0.80;;;34.30;59.60;;;;;;6117576;23;20201;-78
2022/07/13 12:36:14;;;;;;;1.40;0.83;;;34.30;59.50;;;;;;6113119;23;20185;-78
2022/07/13 12:39:03;;;;;;;1.40;0.90;;;34.50;59.10;;;;;;6117819;23;20186;-78
2022/07/13 12:41:34;;;;;;;1.43;0.80;;;34.80;59.10;;;;;;6116812;23;20520;-77
2022/07/13 12:44:03;;;;;;;1.73;1.30;;;35.20;57.60;;;;;;6116203;23;20463;-78
2022/07/13 12:46:50;;;;;;;1.45;0.80;;;35.40;57.90;;;;;;6116159;23;20591;-78
2022/07/13 12:49:19;;;;;;;1.40;0.80;;;35.50;57.30;;;;;;6129908;23;20177;-77
2022/07/13 12:51:48;;;;;;;1.40;0.80;;;35.50;56.80;;;;;;6123563;23;20252;-76
2022/07/13 12:54:16;;;;;;;1.50;0.90;;;35.40;57.40;;;;;;6125975;23;20760;-77
2022/07/13 12:56:50;;;;;;;1.42;0.80;;;35.20;57.80;;;;;;6123506;23;20636;-77
2022/07/13 12:59:20;;;;;;;1.45;0.90;;;35.00;58.10;;;;;;6124042;23;20166;-77
2022/07/13 13:01:49;;;;;;;1.40;0.80;;;34.90;58.00;;;;;;6123795;23;20259;-76
2022/07/13 13:04:22;;;;;;;1.40;0.80;;;35.00;58.50;;;;;;6128142;23;20181;-78
2022/07/13 13:06:52;;;;;;;1.40;0.80;;;35.10;58.60;;;;;;6123732;23;20177;-77
2022/07/13 13:09:55;;;;;;;1.40;0.80;;;35.10;58.60;;;;;;6133926;23;20244;-78
2022/07/13 13:12:35;;;;;;;1.40;0.80;;;35.00;57.60;;;;;;6124723;23;20181;-79
2022/07/13 13:15:03;;;;;;;1.40;0.80;;;34.70;58.60;;;;;;6138792;23;20197;-76
2022/07/13 13:17:34;;;;;;;1.40;0.80;;;34.60;59.80;;;;;;6127777;23;20181;-78